Overview Statistics Trail Chart Weather Telemetry Raw packets
 

This is the latest recevied weather packets stored in our database for station/object OM5ZU-10. If no packets are shown the sender has not sent any weather packets the latest 10 day(s).

<< 15 16 17 18 19 20 21 >>
Time Temp. Humidity Pressure Rain* Wind** Luminosity Snow
1788205841 20.56° C 68% 1014.6 hPa - - - -
1788205786 20.56° C 68% 1014.6 hPa - - - -
1788204874 21.11° C 67% 1014.3 hPa - - - -
1788203974 21.11° C 67% 1014.2 hPa - - - -
1788203073 21.67° C 63% 1014.1 hPa - - - -
1788202173 22.78° C 59% 1013.9 hPa - - - -
1788201273 22.78° C 59% 1013.7 hPa - - - -
1788200373 23.33° C 56% 1013.8 hPa - - - -
1788199473 24.44° C 54% 1013.7 hPa - - - -
1788198572 25° C 52% 1013.7 hPa - - - -
1788197672 25.56° C 49% 1013.6 hPa - - - -
1788196772 26.11° C 47% 1013.6 hPa - - - -
1788195872 26.67° C 45% 1013.5 hPa - - - -
1788194972 27.22° C 43% 1013.5 hPa - - - -
1788194072 28.33° C 43% 1013.5 hPa - - - -
1788193171 29.44° C 42% 1013.5 hPa - - - -
1788192271 27.78° C 45% 1013.5 hPa - - - -
1788191371 28.33° C 46% 1013.4 hPa - - - -
1788190471 28.33° C 45% 1013.3 hPa - - - -
1788189571 29.44° C 43% 1013.2 hPa - - - -
1788188673 30° C 42% 1013.1 hPa - - - -
1788187771 32.22° C 40% 1013.2 hPa - - - -
1788186870 30° C 42% 1013.2 hPa - - - -
1788185970 30.56° C 43% 1013.3 hPa - - - -
1788185108 30.56° C 42% 1013.2 hPa - - - -

* Rain since midnight (hover to see other rain measurements)
** Current wind speed in m/s (hover to see current wind gust speed)